sensor_id;sensor_type;location;lat;lon;timestamp;pressure;altitude;pressure_sealevel;temperature;humidity
59829;BME280;45708;51.848;107.620;2022-11-15T00:04:47;94411.72;;;-11.93;80.32
59829;BME280;45708;51.848;107.620;2022-11-15T00:09:48;94432.59;;;-11.76;80.14
59829;BME280;45708;51.848;107.620;2022-11-15T00:14:48;94442.16;;;-11.67;80.59
59829;BME280;45708;51.848;107.620;2022-11-15T00:19:49;94450.41;;;-11.63;79.93
59829;BME280;45708;51.848;107.620;2022-11-15T00:24:50;94420.19;;;-11.80;79.95
59829;BME280;45708;51.848;107.620;2022-11-15T00:29:51;94417.91;;;-11.72;79.86
59829;BME280;45708;51.848;107.620;2022-11-15T00:34:52;94452.44;;;-11.30;79.22
59829;BME280;45708;51.848;107.620;2022-11-15T00:39:53;94444.97;;;-10.71;78.96
59829;BME280;45708;51.848;107.620;2022-11-15T00:44:53;94449.34;;;-9.44;76.28
59829;BME280;45708;51.848;107.620;2022-11-15T00:49:54;94421.97;;;-8.22;72.40
59829;BME280;45708;51.848;107.620;2022-11-15T00:54:55;94396.41;;;-7.80;70.88
59829;BME280;45708;51.848;107.620;2022-11-15T00:59:56;94414.81;;;-7.45;69.40
59829;BME280;45708;51.848;107.620;2022-11-15T01:04:57;94400.53;;;-8.96;70.72
59829;BME280;45708;51.848;107.620;2022-11-15T01:09:58;94433.31;;;-9.46;72.98
59829;BME280;45708;51.848;107.620;2022-11-15T01:14:59;94419.78;;;-8.58;70.71
59829;BME280;45708;51.848;107.620;2022-11-15T01:19:59;94421.94;;;-9.53;72.30
59829;BME280;45708;51.848;107.620;2022-11-15T01:25:00;94431.72;;;-9.93;73.76
59829;BME280;45708;51.848;107.620;2022-11-15T01:30:01;94375.09;;;-10.33;73.67
59829;BME280;45708;51.848;107.620;2022-11-15T01:35:02;94398.81;;;-10.09;74.68
59829;BME280;45708;51.848;107.620;2022-11-15T01:40:03;94413.16;;;-9.84;74.07
59829;BME280;45708;51.848;107.620;2022-11-15T01:45:05;94397.25;;;-9.76;73.76
59829;BME280;45708;51.848;107.620;2022-11-15T01:50:10;94427.75;;;-9.51;73.70
59829;BME280;45708;51.848;107.620;2022-11-15T01:55:21;94386.50;;;-9.58;74.22
59829;BME280;45708;51.848;107.620;2022-11-15T02:00:23;94423.56;;;-9.30;74.52
59829;BME280;45708;51.848;107.620;2022-11-15T02:05:24;94399.03;;;-9.21;74.04
59829;BME280;45708;51.848;107.620;2022-11-15T02:10:25;94390.88;;;-8.93;74.34
59829;BME280;45708;51.848;107.620;2022-11-15T02:15:30;94382.91;;;-8.67;73.32
59829;BME280;45708;51.848;107.620;2022-11-15T02:31:51;94389.97;;;-8.28;72.65
59829;BME280;45708;51.848;107.620;2022-11-15T02:37:07;94393.72;;;-8.00;72.41
59829;BME280;45708;51.848;107.620;2022-11-15T02:42:27;94396.88;;;-7.66;71.80
59829;BME280;45708;51.848;107.620;2022-11-15T02:47:31;94354.72;;;-7.52;71.90
59829;BME280;45708;51.848;107.620;2022-11-15T02:52:35;94387.72;;;-7.07;70.71
59829;BME280;45708;51.848;107.620;2022-11-15T02:57:51;94350.97;;;-7.08;69.89
59829;BME280;45708;51.848;107.620;2022-11-15T03:03:16;94392.69;;;-6.65;70.14
59829;BME280;45708;51.848;107.620;2022-11-15T03:08:31;94392.19;;;-6.59;68.82
59829;BME280;45708;51.848;107.620;2022-11-15T03:13:38;94392.75;;;-6.36;68.49
59829;BME280;45708;51.848;107.620;2022-11-15T03:18:45;94374.38;;;-6.13;68.65
59829;BME280;45708;51.848;107.620;2022-11-15T03:23:49;94363.13;;;-6.02;68.00
59829;BME280;45708;51.848;107.620;2022-11-15T03:28:55;94361.31;;;-5.82;67.32
59829;BME280;45708;51.848;107.620;2022-11-15T03:33:59;94362.66;;;-5.59;67.21
59829;BME280;45708;51.848;107.620;2022-11-15T03:39:02;94373.38;;;-5.26;66.90
59829;BME280;45708;51.848;107.620;2022-11-15T03:44:31;94368.69;;;-5.03;65.51
59829;BME280;45708;51.848;107.620;2022-11-15T03:49:35;94367.72;;;-4.93;65.00
59829;BME280;45708;51.848;107.620;2022-11-15T03:54:46;94351.13;;;-4.80;64.73
59829;BME280;45708;51.848;107.620;2022-11-15T03:59:47;94349.75;;;-4.57;64.10
59829;BME280;45708;51.848;107.620;2022-11-15T04:04:48;94342.38;;;-4.52;64.34
59829;BME280;45708;51.848;107.620;2022-11-15T04:10:10;94341.50;;;-4.25;63.94
59829;BME280;45708;51.848;107.620;2022-11-15T04:15:29;94331.50;;;-4.10;63.75
59829;BME280;45708;51.848;107.620;2022-11-15T04:20:31;94349.16;;;-3.80;61.71
59829;BME280;45708;51.848;107.620;2022-11-15T04:25:32;94322.31;;;-3.87;61.17
59829;BME280;45708;51.848;107.620;2022-11-15T04:30:33;94304.34;;;-3.79;61.47
59829;BME280;45708;51.848;107.620;2022-11-15T04:35:52;94304.69;;;-3.48;61.68
59829;BME280;45708;51.848;107.620;2022-11-15T04:41:12;94309.16;;;-3.24;59.96
59829;BME280;45708;51.848;107.620;2022-11-15T04:46:32;94288.81;;;-3.27;60.39
59829;BME280;45708;51.848;107.620;2022-11-15T04:51:33;94310.53;;;-3.12;59.63
59829;BME280;45708;51.848;107.620;2022-11-15T04:56:34;94312.97;;;-3.02;59.77
59829;BME280;45708;51.848;107.620;2022-11-15T05:01:35;94315.13;;;-2.97;59.05
59829;BME280;45708;51.848;107.620;2022-11-15T05:06:36;94277.25;;;-3.15;57.71
59829;BME280;45708;51.848;107.620;2022-11-15T05:11:36;94301.16;;;-3.13;59.37
59829;BME280;45708;51.848;107.620;2022-11-15T05:16:40;94304.94;;;-2.99;58.91
59829;BME280;45708;51.848;107.620;2022-11-15T05:21:41;94276.94;;;-3.12;58.22
59829;BME280;45708;51.848;107.620;2022-11-15T05:26:41;94292.75;;;-3.15;58.96
59829;BME280;45708;51.848;107.620;2022-11-15T05:31:43;94229.41;;;-3.27;59.50
59829;BME280;45708;51.848;107.620;2022-11-15T05:36:44;94275.44;;;-2.80;59.06
59829;BME280;45708;51.848;107.620;2022-11-15T05:41:51;94265.97;;;-2.55;58.68
59829;BME280;45708;51.848;107.620;2022-11-15T05:46:54;94258.22;;;-2.39;58.26
59829;BME280;45708;51.848;107.620;2022-11-15T05:51:56;94244.47;;;-2.31;57.83
59829;BME280;45708;51.848;107.620;2022-11-15T05:56:58;94246.25;;;-2.24;57.78
59829;BME280;45708;51.848;107.620;2022-11-15T06:01:59;94242.72;;;-2.15;57.17
59829;BME280;45708;51.848;107.620;2022-11-15T06:07:00;94193.69;;;-2.24;57.44
59829;BME280;45708;51.848;107.620;2022-11-15T06:12:01;94238.47;;;-1.91;57.16
59829;BME280;45708;51.848;107.620;2022-11-15T06:17:02;94215.03;;;-1.98;55.59
59829;BME280;45708;51.848;107.620;2022-11-15T06:22:03;94235.41;;;-1.87;56.66
59829;BME280;45708;51.848;107.620;2022-11-15T06:27:04;94201.78;;;-2.11;55.94
59829;BME280;45708;51.848;107.620;2022-11-15T06:32:05;94228.97;;;-1.99;56.51
59829;BME280;45708;51.848;107.620;2022-11-15T06:37:06;94233.81;;;-1.96;56.11
59829;BME280;45708;51.848;107.620;2022-11-15T06:42:08;94231.38;;;-1.97;56.38
59829;BME280;45708;51.848;107.620;2022-11-15T06:47:09;94225.69;;;-2.01;57.21
59829;BME280;45708;51.848;107.620;2022-11-15T06:52:10;94217.97;;;-2.09;56.49
59829;BME280;45708;51.848;107.620;2022-11-15T06:57:11;94177.72;;;-2.28;56.34
59829;BME280;45708;51.848;107.620;2022-11-15T07:02:13;94213.75;;;-2.10;56.69
59829;BME280;45708;51.848;107.620;2022-11-15T07:07:14;94213.75;;;-2.10;56.62
59829;BME280;45708;51.848;107.620;2022-11-15T07:12:14;94208.41;;;-2.08;56.60
59829;BME280;45708;51.848;107.620;2022-11-15T07:17:15;94214.06;;;-1.97;56.70
59829;BME280;45708;51.848;107.620;2022-11-15T07:22:16;94208.25;;;-1.99;56.64
59829;BME280;45708;51.848;107.620;2022-11-15T07:27:17;94167.19;;;-2.26;56.32
59829;BME280;45708;51.848;107.620;2022-11-15T07:32:18;94195.66;;;-2.10;56.21
59829;BME280;45708;51.848;107.620;2022-11-15T07:37:19;94194.03;;;-2.27;56.76
59829;BME280;45708;51.848;107.620;2022-11-15T07:42:20;94194.03;;;-2.27;56.64
59829;BME280;45708;51.848;107.620;2022-11-15T07:47:20;94197.91;;;-2.23;56.70
59829;BME280;45708;51.848;107.620;2022-11-15T07:52:21;94207.78;;;-2.19;56.84
59829;BME280;45708;51.848;107.620;2022-11-15T07:57:22;94211.16;;;-2.10;55.99
59829;BME280;45708;51.848;107.620;2022-11-15T08:02:23;94139.09;;;-2.62;56.57
59829;BME280;45708;51.848;107.620;2022-11-15T08:07:24;94188.22;;;-2.29;57.02
59829;BME280;45708;51.848;107.620;2022-11-15T08:12:25;94132.00;;;-2.60;57.27
59829;BME280;45708;51.848;107.620;2022-11-15T08:17:26;94207.94;;;-2.12;56.93
59829;BME280;45708;51.848;107.620;2022-11-15T08:22:27;94193.06;;;-2.26;56.94
59829;BME280;45708;51.848;107.620;2022-11-15T08:27:27;94213.13;;;-2.28;57.50
59829;BME280;45708;51.848;107.620;2022-11-15T08:32:29;94195.66;;;-2.51;57.61
59829;BME280;45708;51.848;107.620;2022-11-15T08:37:30;94212.16;;;-2.52;58.28
59829;BME280;45708;51.848;107.620;2022-11-15T08:42:31;94121.91;;;-3.36;58.34
59829;BME280;45708;51.848;107.620;2022-11-15T08:47:32;94225.66;;;-2.82;58.54
59829;BME280;45708;51.848;107.620;2022-11-15T08:52:33;94202.84;;;-3.11;59.39
59829;BME280;45708;51.848;107.620;2022-11-15T08:57:34;94223.34;;;-3.10;58.75
59829;BME280;45708;51.848;107.620;2022-11-15T09:02:38;94216.50;;;-3.27;59.30
59829;BME280;45708;51.848;107.620;2022-11-15T09:07:39;94225.84;;;-3.34;59.50
59829;BME280;45708;51.848;107.620;2022-11-15T09:12:40;94201.56;;;-3.57;59.81
59829;BME280;45708;51.848;107.620;2022-11-15T09:17:41;94217.84;;;-3.57;60.19
59829;BME280;45708;51.848;107.620;2022-11-15T09:22:41;94178.41;;;-4.01;59.90
59829;BME280;45708;51.848;107.620;2022-11-15T09:27:42;94173.19;;;-4.17;60.31
59829;BME280;45708;51.848;107.620;2022-11-15T09:32:43;94193.97;;;-4.19;60.48
59829;BME280;45708;51.848;107.620;2022-11-15T09:37:44;94208.91;;;-4.22;60.98
59829;BME280;45708;51.848;107.620;2022-11-15T09:53:26;94205.19;;;-4.64;61.29
59829;BME280;45708;51.848;107.620;2022-11-15T10:03:38;94209.69;;;-4.83;62.46
59829;BME280;45708;51.848;107.620;2022-11-15T10:09:03;94196.00;;;-5.02;63.00
59829;BME280;45708;51.848;107.620;2022-11-15T10:14:17;94220.38;;;-4.96;62.47
59829;BME280;45708;51.848;107.620;2022-11-15T10:24:44;94207.88;;;-5.36;63.65
59829;BME280;45708;51.848;107.620;2022-11-15T10:29:50;94227.66;;;-5.37;63.21
59829;BME280;45708;51.848;107.620;2022-11-15T10:34:51;94223.00;;;-5.51;63.68
59829;BME280;45708;51.848;107.620;2022-11-15T10:40:05;94231.97;;;-5.65;64.79
59829;BME280;45708;51.848;107.620;2022-11-15T10:45:33;94210.81;;;-5.86;64.01
59829;BME280;45708;51.848;107.620;2022-11-15T10:50:34;94223.66;;;-5.86;64.30
59829;BME280;45708;51.848;107.620;2022-11-15T10:55:46;94212.41;;;-6.13;64.46
59829;BME280;45708;51.848;107.620;2022-11-15T11:00:47;94235.41;;;-6.11;64.46
59829;BME280;45708;51.848;107.620;2022-11-15T11:05:48;94232.59;;;-6.18;65.23
59829;BME280;45708;51.848;107.620;2022-11-15T11:11:04;94221.00;;;-6.41;65.63
59829;BME280;45708;51.848;107.620;2022-11-15T11:26:51;94221.03;;;-6.80;66.39
59829;BME280;45708;51.848;107.620;2022-11-15T11:48:13;94233.16;;;-7.11;66.23
59829;BME280;45708;51.848;107.620;2022-11-15T11:53:22;94238.31;;;-7.20;67.02
59829;BME280;45708;51.848;107.620;2022-11-15T11:58:38;94204.75;;;-7.48;67.61
59829;BME280;45708;51.848;107.620;2022-11-15T12:03:59;94213.13;;;-7.46;67.82
59829;BME280;45708;51.848;107.620;2022-11-15T12:14:36;94216.66;;;-7.27;67.86
59829;BME280;45708;51.848;107.620;2022-11-15T12:19:39;94183.69;;;-7.42;67.04
59829;BME280;45708;51.848;107.620;2022-11-15T12:24:51;94181.53;;;-7.56;67.73
59829;BME280;45708;51.848;107.620;2022-11-15T12:29:59;94167.44;;;-7.71;67.55
59829;BME280;45708;51.848;107.620;2022-11-15T12:35:03;94202.31;;;-7.49;68.17
59829;BME280;45708;51.848;107.620;2022-11-15T12:45:34;94204.47;;;-7.54;68.03
59829;BME280;45708;51.848;107.620;2022-11-15T13:06:50;94200.63;;;-7.79;68.40
59829;BME280;45708;51.848;107.620;2022-11-15T13:11:52;94175.16;;;-8.02;68.99
59829;BME280;45708;51.848;107.620;2022-11-15T13:16:59;94157.22;;;-8.02;68.52
59829;BME280;45708;51.848;107.620;2022-11-15T13:22:04;94128.28;;;-8.23;68.87
59829;BME280;45708;51.848;107.620;2022-11-15T13:27:18;94128.47;;;-8.15;68.91
59829;BME280;45708;51.848;107.620;2022-11-15T13:32:20;94118.22;;;-8.15;68.93
59829;BME280;45708;51.848;107.620;2022-11-15T13:42:22;94147.91;;;-8.03;69.24
59829;BME280;45708;51.848;107.620;2022-11-15T13:47:29;94158.69;;;-8.09;69.58
59829;BME280;45708;51.848;107.620;2022-11-15T13:52:33;94147.84;;;-8.22;69.73
59829;BME280;45708;51.848;107.620;2022-11-15T14:02:48;94142.97;;;-8.25;69.90
59829;BME280;45708;51.848;107.620;2022-11-15T14:07:58;94134.88;;;-8.30;70.24
59829;BME280;45708;51.848;107.620;2022-11-15T14:13:00;94122.44;;;-8.44;70.50
59829;BME280;45708;51.848;107.620;2022-11-15T14:18:01;94132.41;;;-8.41;70.20
59829;BME280;45708;51.848;107.620;2022-11-15T14:23:05;94106.22;;;-8.54;70.73
59829;BME280;45708;51.848;107.620;2022-11-15T14:33:28;94125.91;;;-8.15;70.33
59829;BME280;45708;51.848;107.620;2022-11-15T14:38:30;94073.78;;;-8.44;71.03
59829;BME280;45708;51.848;107.620;2022-11-15T14:43:31;94114.13;;;-8.27;70.22
59829;BME280;45708;51.848;107.620;2022-11-15T14:48:32;94115.44;;;-8.33;70.96
59829;BME280;45708;51.848;107.620;2022-11-15T14:53:33;94083.56;;;-8.59;70.95
59829;BME280;45708;51.848;107.620;2022-11-15T14:58:34;94083.50;;;-8.78;71.58
59829;BME280;45708;51.848;107.620;2022-11-15T15:03:35;94092.97;;;-8.90;72.39
59829;BME280;45708;51.848;107.620;2022-11-15T15:08:36;94048.94;;;-9.35;72.13
59829;BME280;45708;51.848;107.620;2022-11-15T15:13:37;94088.81;;;-9.33;73.08
59829;BME280;45708;51.848;107.620;2022-11-15T15:18:38;94098.38;;;-9.46;72.24
59829;BME280;45708;51.848;107.620;2022-11-15T15:23:39;94103.19;;;-9.53;72.41
59829;BME280;45708;51.848;107.620;2022-11-15T15:28:39;94069.69;;;-9.70;72.65
59829;BME280;45708;51.848;107.620;2022-11-15T15:33:40;94081.69;;;-9.50;76.05
59829;BME280;45708;51.848;107.620;2022-11-15T15:38:41;94070.22;;;-9.35;76.81
59829;BME280;45708;51.848;107.620;2022-11-15T15:43:42;94053.81;;;-9.32;76.72
59829;BME280;45708;51.848;107.620;2022-11-15T15:48:44;94044.66;;;-9.35;76.21
59829;BME280;45708;51.848;107.620;2022-11-15T15:53:45;94057.47;;;-9.25;77.16
59829;BME280;45708;51.848;107.620;2022-11-15T15:58:46;94019.88;;;-9.34;77.29
59829;BME280;45708;51.848;107.620;2022-11-15T16:03:47;94018.81;;;-9.32;78.15
59829;BME280;45708;51.848;107.620;2022-11-15T16:08:48;94043.63;;;-9.23;76.71
59829;BME280;45708;51.848;107.620;2022-11-15T16:13:49;94022.06;;;-9.71;75.60
59829;BME280;45708;51.848;107.620;2022-11-15T16:18:50;94019.59;;;-10.26;75.10
59829;BME280;45708;51.848;107.620;2022-11-15T16:23:51;93998.22;;;-10.57;76.43
59829;BME280;45708;51.848;107.620;2022-11-15T16:28:52;94008.69;;;-10.60;76.35
59829;BME280;45708;51.848;107.620;2022-11-15T16:33:53;94014.03;;;-10.74;76.88
59829;BME280;45708;51.848;107.620;2022-11-15T16:38:54;93976.03;;;-10.99;75.50
59829;BME280;45708;51.848;107.620;2022-11-15T16:43:55;94025.84;;;-10.95;76.54
59829;BME280;45708;51.848;107.620;2022-11-15T16:48:56;94010.44;;;-11.16;75.86
59829;BME280;45708;51.848;107.620;2022-11-15T16:53:57;94023.28;;;-11.40;75.84
59829;BME280;45708;51.848;107.620;2022-11-15T16:58:59;94021.16;;;-11.57;75.87
59829;BME280;45708;51.848;107.620;2022-11-15T17:04:01;94013.50;;;-11.80;76.37
59829;BME280;45708;51.848;107.620;2022-11-15T17:09:02;94011.88;;;-11.81;76.49
59829;BME280;45708;51.848;107.620;2022-11-15T17:14:03;93998.75;;;-11.87;76.40
59829;BME280;45708;51.848;107.620;2022-11-15T17:19:04;93964.19;;;-12.14;77.71
59829;BME280;45708;51.848;107.620;2022-11-15T17:24:05;93906.63;;;-12.39;77.56
59829;BME280;45708;51.848;107.620;2022-11-15T17:29:05;93967.38;;;-11.88;77.87
59829;BME280;45708;51.848;107.620;2022-11-15T17:34:06;93955.84;;;-11.47;79.06
59829;BME280;45708;51.848;107.620;2022-11-15T17:39:07;93947.16;;;-11.11;80.72
59829;BME280;45708;51.848;107.620;2022-11-15T17:44:08;93960.94;;;-10.80;80.22
59829;BME280;45708;51.848;107.620;2022-11-15T17:49:09;93980.63;;;-10.71;79.98
59829;BME280;45708;51.848;107.620;2022-11-15T17:54:10;93920.16;;;-11.14;80.24
59829;BME280;45708;51.848;107.620;2022-11-15T17:59:11;93899.66;;;-11.12;78.50
59829;BME280;45708;51.848;107.620;2022-11-15T18:04:11;93960.00;;;-10.79;80.07
59829;BME280;45708;51.848;107.620;2022-11-15T18:09:12;93955.13;;;-11.05;79.72
59829;BME280;45708;51.848;107.620;2022-11-15T18:14:14;93946.34;;;-11.23;80.31
59829;BME280;45708;51.848;107.620;2022-11-15T18:19:15;93959.91;;;-11.22;79.86
59829;BME280;45708;51.848;107.620;2022-11-15T18:24:15;93925.50;;;-11.50;80.14
59829;BME280;45708;51.848;107.620;2022-11-15T18:29:17;93965.91;;;-11.23;79.21
59829;BME280;45708;51.848;107.620;2022-11-15T18:34:19;93925.03;;;-11.55;79.28
59829;BME280;45708;51.848;107.620;2022-11-15T18:39:20;93954.69;;;-11.43;79.66
59829;BME280;45708;51.848;107.620;2022-11-15T18:44:22;93948.41;;;-11.73;79.49
59829;BME280;45708;51.848;107.620;2022-11-15T18:49:23;93906.28;;;-11.99;79.63
59829;BME280;45708;51.848;107.620;2022-11-15T18:54:23;93927.75;;;-12.03;79.92
59829;BME280;45708;51.848;107.620;2022-11-15T18:59:24;93942.31;;;-12.16;79.72
59829;BME280;45708;51.848;107.620;2022-11-15T19:04:25;93934.81;;;-12.18;80.30
59829;BME280;45708;51.848;107.620;2022-11-15T19:09:26;93936.25;;;-12.38;80.00
59829;BME280;45708;51.848;107.620;2022-11-15T19:14:27;93931.78;;;-12.47;79.69
59829;BME280;45708;51.848;107.620;2022-11-15T19:19:28;93909.25;;;-12.75;79.94
59829;BME280;45708;51.848;107.620;2022-11-15T19:24:29;93918.28;;;-12.71;80.40
59829;BME280;45708;51.848;107.620;2022-11-15T19:29:29;93813.66;;;-13.13;79.87
59829;BME280;45708;51.848;107.620;2022-11-15T19:34:30;93908.44;;;-12.52;80.38
59829;BME280;45708;51.848;107.620;2022-11-15T19:39:31;93905.13;;;-12.30;80.58
59829;BME280;45708;51.848;107.620;2022-11-15T19:44:32;93901.16;;;-12.10;80.70
59829;BME280;45708;51.848;107.620;2022-11-15T19:49:33;93896.78;;;-11.97;81.00
59829;BME280;45708;51.848;107.620;2022-11-15T19:54:34;93884.06;;;-11.97;81.02
59829;BME280;45708;51.848;107.620;2022-11-15T19:59:34;93857.63;;;-12.18;80.54
59829;BME280;45708;51.848;107.620;2022-11-15T20:04:35;93881.50;;;-11.97;81.05
59829;BME280;45708;51.848;107.620;2022-11-15T20:09:36;93847.00;;;-12.12;80.33
59829;BME280;45708;51.848;107.620;2022-11-15T20:14:37;93868.28;;;-12.02;80.23
59829;BME280;45708;51.848;107.620;2022-11-15T20:19:38;93830.34;;;-12.16;80.14
59829;BME280;45708;51.848;107.620;2022-11-15T20:24:38;93836.31;;;-12.29;80.54
59829;BME280;45708;51.848;107.620;2022-11-15T20:29:39;93825.88;;;-12.48;80.92
59829;BME280;45708;51.848;107.620;2022-11-15T20:34:40;93836.91;;;-12.36;81.57
59829;BME280;45708;51.848;107.620;2022-11-15T20:39:41;93754.84;;;-12.73;80.92
59829;BME280;45708;51.848;107.620;2022-11-15T20:44:42;93811.56;;;-12.38;81.38
59829;BME280;45708;51.848;107.620;2022-11-15T20:49:43;93827.66;;;-12.26;81.24
59829;BME280;45708;51.848;107.620;2022-11-15T20:54:43;93829.91;;;-12.45;80.45
59829;BME280;45708;51.848;107.620;2022-11-15T20:59:44;93811.75;;;-12.52;79.46
59829;BME280;45708;51.848;107.620;2022-11-15T21:04:45;93794.94;;;-13.12;80.32
59829;BME280;45708;51.848;107.620;2022-11-15T21:09:46;93805.31;;;-13.15;80.01
59829;BME280;45708;51.848;107.620;2022-11-15T21:14:47;93832.28;;;-13.36;80.03
59829;BME280;45708;51.848;107.620;2022-11-15T21:19:48;93836.09;;;-13.55;80.59
59829;BME280;45708;51.848;107.620;2022-11-15T21:24:49;93850.19;;;-13.50;80.82
59829;BME280;45708;51.848;107.620;2022-11-15T21:29:49;93841.28;;;-13.56;80.91
59829;BME280;45708;51.848;107.620;2022-11-15T21:34:50;93834.38;;;-13.67;80.31
59829;BME280;45708;51.848;107.620;2022-11-15T21:39:51;93805.59;;;-13.91;80.77
59829;BME280;45708;51.848;107.620;2022-11-15T21:44:52;93823.84;;;-13.73;80.91
59829;BME280;45708;51.848;107.620;2022-11-15T21:49:53;93784.47;;;-13.79;81.96
59829;BME280;45708;51.848;107.620;2022-11-15T21:54:54;93821.66;;;-13.30;81.75
59829;BME280;45708;51.848;107.620;2022-11-15T21:59:54;93798.47;;;-13.26;81.42
59829;BME280;45708;51.848;107.620;2022-11-15T22:04:55;93741.69;;;-13.72;82.29
59829;BME280;45708;51.848;107.620;2022-11-15T22:09:56;93814.00;;;-13.06;81.87
59829;BME280;45708;51.848;107.620;2022-11-15T22:14:57;93807.88;;;-13.04;81.54
59829;BME280;45708;51.848;107.620;2022-11-15T22:19:58;93835.69;;;-12.90;81.18
59829;BME280;45708;51.848;107.620;2022-11-15T22:24:59;93787.38;;;-13.01;81.56
59829;BME280;45708;51.848;107.620;2022-11-15T22:30:00;93795.47;;;-12.96;81.71
59829;BME280;45708;51.848;107.620;2022-11-15T22:35:00;93805.22;;;-12.78;81.84
59829;BME280;45708;51.848;107.620;2022-11-15T22:40:02;93774.25;;;-12.72;81.62
59829;BME280;45708;51.848;107.620;2022-11-15T22:45:03;93760.16;;;-12.76;81.02
59829;BME280;45708;51.848;107.620;2022-11-15T22:50:04;93762.44;;;-12.84;80.86
59829;BME280;45708;51.848;107.620;2022-11-15T22:55:05;93710.16;;;-13.11;81.25
59829;BME280;45708;51.848;107.620;2022-11-15T23:00:11;93735.34;;;-13.08;80.90
59829;BME280;45708;51.848;107.620;2022-11-15T23:05:12;93682.66;;;-13.28;80.77
59829;BME280;45708;51.848;107.620;2022-11-15T23:10:13;93705.41;;;-13.04;81.22
59829;BME280;45708;51.848;107.620;2022-11-15T23:15:14;93713.81;;;-13.26;80.48
59829;BME280;45708;51.848;107.620;2022-11-15T23:20:16;93699.53;;;-13.51;81.09
59829;BME280;45708;51.848;107.620;2022-11-15T23:25:17;93664.28;;;-13.32;81.70
59829;BME280;45708;51.848;107.620;2022-11-15T23:30:18;93719.63;;;-13.02;81.60
59829;BME280;45708;51.848;107.620;2022-11-15T23:35:19;93728.09;;;-12.90;81.59
59829;BME280;45708;51.848;107.620;2022-11-15T23:40:20;93678.16;;;-13.13;81.40
59829;BME280;45708;51.848;107.620;2022-11-15T23:45:21;93762.47;;;-12.62;81.21
59829;BME280;45708;51.848;107.620;2022-11-15T23:50:22;93772.22;;;-12.45;80.64
59829;BME280;45708;51.848;107.620;2022-11-15T23:55:22;93795.81;;;-12.43;80.55
